createdAt,value
2023-04-11T00:01:01.605Z,-24006.35
2023-04-11T00:03:30.109Z,-24004.66
2023-04-11T00:08:15.839Z,-24002.25
2023-04-11T00:10:45.623Z,-24000.13
2023-04-11T00:13:14.107Z,-23998.75
2023-04-11T00:15:42.304Z,-23997.66
2023-04-11T00:18:12.777Z,-23996.72
2023-04-11T00:20:40.923Z,-23995.72
2023-04-11T00:23:09.239Z,-23995.25
2023-04-11T00:25:37.934Z,-23994.43
2023-04-11T00:28:06.224Z,-23993.68
2023-04-11T00:30:36.612Z,-23992.78
2023-04-11T00:33:05.881Z,-23991.59
2023-04-11T00:35:35.346Z,-23990.12
2023-04-11T00:38:04.216Z,-23988.58
2023-04-11T00:40:32.699Z,-23987.27
2023-04-11T00:43:20.805Z,-23986.18
2023-04-11T00:45:49.192Z,-23985.49
2023-04-11T00:48:17.697Z,-23984.83
2023-04-11T00:50:48.016Z,-23984.58
2023-04-11T00:53:18.959Z,-23984.21
2023-04-11T00:55:47.123Z,-23983.89
2023-04-11T00:58:16.920Z,-23983.23
2023-04-11T01:00:45.054Z,-23982.68
2023-04-11T01:03:14.691Z,-23981.67
2023-04-11T01:05:43.508Z,-23980.64
2023-04-11T01:08:13.532Z,-23979.92
2023-04-11T01:10:42.105Z,-23979.45
2023-04-11T01:13:10.326Z,-23978.70
2023-04-11T01:15:48.689Z,-23977.67
2023-04-11T01:18:18.980Z,-23976.98
2023-04-11T01:20:47.120Z,-23976.79
2023-04-11T01:23:25.869Z,-23976.32
2023-04-11T01:25:54.142Z,-23975.85
2023-04-11T01:28:22.736Z,-23975.29
2023-04-11T01:30:51.388Z,-23974.60
2023-04-11T01:33:23.170Z,-23974.17
2023-04-11T01:35:51.497Z,-23973.82
2023-04-11T01:38:23.249Z,-23973.73
2023-04-11T01:40:52.419Z,-23973.48
2023-04-11T01:43:20.705Z,-23973.23
2023-04-11T01:45:50.812Z,-23972.95
2023-04-11T01:48:19.737Z,-23972.45
2023-04-11T01:50:48.019Z,-23972.07
2023-04-11T01:53:16.826Z,-23971.47
2023-04-11T01:55:47.387Z,-23970.44
2023-04-11T01:58:16.554Z,-23969.94
2023-04-11T02:00:45.034Z,-23969.60
2023-04-11T02:03:14.336Z,-23969.13
2023-04-11T02:05:42.894Z,-23968.16
2023-04-11T02:08:19.063Z,-23967.50
2023-04-11T02:10:47.398Z,-23966.91
2023-04-11T02:13:15.543Z,-23966.34
2023-04-11T02:15:49.082Z,-23965.31
2023-04-11T02:18:18.861Z,-23964.31
2023-04-11T02:20:47.935Z,-23964.09
2023-04-11T02:23:16.378Z,-23963.49
2023-04-11T02:25:44.738Z,-23962.14
2023-04-11T02:28:12.965Z,-23961.27
2023-04-11T02:30:41.538Z,-23960.74
2023-04-11T02:33:10.570Z,-23959.93
2023-04-11T02:35:38.955Z,-23959.86
2023-04-11T02:38:09.153Z,-23960.08
2023-04-11T02:40:38.006Z,-23960.30
2023-04-11T02:43:11.744Z,-23960.55
2023-04-11T02:45:41.415Z,-23960.08
2023-04-11T02:48:09.700Z,-23959.39
2023-04-11T02:50:44.031Z,-23959.46
2023-04-11T02:53:13.001Z,-23959.14
2023-04-11T02:55:49.724Z,-23958.20
2023-04-11T02:58:20.255Z,-23957.36
2023-04-11T03:00:49.683Z,-23956.26
2023-04-11T03:03:26.554Z,-23955.57
2023-04-11T03:05:57.151Z,-23954.82
2023-04-11T03:08:25.961Z,-23954.47
2023-04-11T03:10:56.794Z,-23953.35
2023-04-11T03:13:26.467Z,-23952.04
2023-04-11T03:15:55.229Z,-23951.13
2023-04-11T03:18:27.718Z,-23950.38
2023-04-11T03:20:56.570Z,-23949.47
2023-04-11T03:23:27.710Z,-23948.15
2023-04-11T03:25:56.770Z,-23946.96
2023-04-11T03:28:25.190Z,-23946.02
2023-04-11T03:30:54.671Z,-23944.80
2023-04-11T03:33:26.468Z,-23943.68
2023-04-11T03:35:54.908Z,-23942.86
2023-04-11T03:38:25.138Z,-23942.07
2023-04-11T03:40:53.483Z,-23940.79
2023-04-11T03:43:24.813Z,-23939.25
2023-04-11T03:45:53.613Z,-23938.51
2023-04-11T03:48:48.178Z,-23938.32
2023-04-11T03:51:17.020Z,-23937.69
2023-04-11T03:53:56.181Z,-23937.53
2023-04-11T03:56:34.086Z,-23937.47
2023-04-11T03:59:02.383Z,-23937.41
2023-04-11T04:01:38.278Z,-23937.25
2023-04-11T04:04:07.705Z,-23937.44
2023-04-11T04:06:38.743Z,-23937.82
2023-04-11T04:09:07.760Z,-23937.50
2023-04-11T04:11:47.851Z,-23937.13
2023-04-11T04:14:23.426Z,-23937.47
2023-04-11T04:16:52.813Z,-23938.32
2023-04-11T04:19:21.306Z,-23938.72
2023-04-11T04:21:50.297Z,-23939.41
2023-04-11T04:24:21.390Z,-23940.23
2023-04-11T04:27:01.122Z,-23940.98
2023-04-11T04:29:48.845Z,-23941.98
2023-04-11T04:32:33.307Z,-23942.86
2023-04-11T04:35:10.634Z,-23943.33
2023-04-11T04:37:45.871Z,-23943.71
2023-04-11T04:40:40.100Z,-23944.68
2023-04-11T04:43:18.370Z,-23945.46
2023-04-11T04:46:05.808Z,-23946.74
2023-04-11T04:48:40.815Z,-23948.46
2023-04-11T04:51:09.028Z,-23950.88
2023-04-11T04:53:45.162Z,-23953.41
2023-04-11T04:56:13.769Z,-23955.57
2023-04-11T04:58:47.381Z,-23958.11
2023-04-11T05:01:17.670Z,-23960.71
2023-04-11T05:03:50.858Z,-23962.71
2023-04-11T05:06:28.257Z,-23964.53
2023-04-11T05:08:58.818Z,-23966.28
2023-04-11T05:11:29.164Z,-23968.63
2023-04-11T05:13:57.745Z,-23971.19
2023-04-11T05:16:26.759Z,-23974.13
2023-04-11T05:18:55.694Z,-23976.64
2023-04-11T05:21:24.649Z,-23978.48
2023-04-11T05:23:58.164Z,-23980.58
2023-04-11T05:26:27.726Z,-23983.52
2023-04-11T05:28:56.221Z,-23986.08
2023-04-11T05:31:29.081Z,-23989.18
2023-04-11T05:33:58.600Z,-23992.15
2023-04-11T05:36:28.481Z,-23994.87
2023-04-11T05:38:58.340Z,-23997.72
2023-04-11T05:41:28.702Z,-24001.34
2023-04-11T05:43:57.125Z,-24004.72
2023-04-11T05:46:27.830Z,-24008.16
2023-04-11T05:48:58.147Z,-24011.22
2023-04-11T05:51:26.647Z,-24014.47
2023-04-11T05:53:55.261Z,-24018.06
2023-04-11T05:56:23.659Z,-24021.78
2023-04-11T05:58:52.438Z,-24025.19
2023-04-11T06:01:21.333Z,-24028.03
2023-04-11T06:03:50.039Z,-24030.71
2023-04-11T06:06:19.532Z,-24033.46
2023-04-11T06:08:47.848Z,-24036.14
2023-04-11T06:11:16.265Z,-24039.08
2023-04-11T06:13:50.562Z,-24042.14
2023-04-11T06:16:19.222Z,-24044.48
2023-04-11T06:18:47.457Z,-24046.35
2023-04-11T06:21:16.781Z,-24048.13
2023-04-11T06:23:45.144Z,-24050.50
2023-04-11T06:26:13.338Z,-24052.47
2023-04-11T06:28:42.824Z,-24054.31
2023-04-11T06:31:11.629Z,-24056.28
2023-04-11T06:33:40.327Z,-24058.55
2023-04-11T06:36:09.385Z,-24060.52
2023-04-11T06:38:38.427Z,-24062.45
2023-04-11T06:41:07.385Z,-24065.13
2023-04-11T06:43:35.708Z,-24068.16
2023-04-11T06:46:08.207Z,-24071.65
2023-04-11T06:48:36.471Z,-24074.36
2023-04-11T06:51:04.994Z,-24076.08
2023-04-11T06:53:37.164Z,-24078.10
2023-04-11T06:56:05.842Z,-24080.31
2023-04-11T06:58:39.146Z,-24082.25
2023-04-11T07:01:07.735Z,-24084.21
2023-04-11T07:03:37.381Z,-24086.30
2023-04-11T07:06:07.600Z,-24088.51
2023-04-11T07:08:37.061Z,-24089.82
2023-04-11T07:11:05.499Z,-24091.09
2023-04-11T07:13:35.144Z,-24092.81
2023-04-11T07:16:03.539Z,-24094.24
2023-04-11T07:18:33.146Z,-24095.36
2023-04-11T07:21:01.310Z,-24095.80
2023-04-11T07:23:30.355Z,-24096.52
2023-04-11T07:25:58.499Z,-24097.32
2023-04-11T07:28:31.630Z,-24098.07
2023-04-11T07:31:00.195Z,-24099.13
2023-04-11T07:33:29.480Z,-24100.10
2023-04-11T07:36:03.225Z,-24101.53
2023-04-11T07:38:31.869Z,-24103.56
2023-04-11T07:41:01.346Z,-24105.73
2023-04-11T07:43:31.500Z,-24108.22
2023-04-11T07:45:59.955Z,-24110.41
2023-04-11T07:48:30.455Z,-24111.68
2023-04-11T07:50:59.039Z,-24112.31
2023-04-11T07:53:32.854Z,-24112.90
2023-04-11T07:56:02.257Z,-24113.46
2023-04-11T07:58:30.578Z,-24113.98
2023-04-11T08:00:58.854Z,-24114.52
2023-04-11T08:03:28.905Z,-24114.73
2023-04-11T08:05:57.416Z,-24115.17
2023-04-11T08:08:26.300Z,-24116.20
2023-04-11T08:10:54.697Z,-24117.25
2023-04-11T08:13:22.875Z,-24117.79
2023-04-11T08:15:52.381Z,-24118.53
2023-04-11T08:18:21.731Z,-24119.65
2023-04-11T08:20:50.018Z,-24121.30
2023-04-11T08:23:21.948Z,-24121.73
2023-04-11T08:25:50.683Z,-24120.92
2023-04-11T08:28:19.006Z,-24120.14
2023-04-11T08:30:47.556Z,-24119.99
2023-04-11T08:33:16.484Z,-24120.24
2023-04-11T08:35:45.180Z,-24121.14
2023-04-11T08:38:14.451Z,-24122.61
2023-04-11T08:40:42.660Z,-24124.38
2023-04-11T08:43:12.506Z,-24125.97
2023-04-11T08:45:41.340Z,-24128.11
2023-04-11T08:48:09.675Z,-24129.42
2023-04-11T08:50:39.930Z,-24128.89
2023-04-11T08:53:08.796Z,-24129.02
2023-04-11T08:55:48.724Z,-24131.04
2023-04-11T08:58:17.329Z,-24134.83
2023-04-11T09:00:48.011Z,-24139.40
2023-04-11T09:03:16.943Z,-24142.70
2023-04-11T09:05:51.629Z,-24145.96
2023-04-11T09:08:20.604Z,-24148.86
2023-04-11T09:10:48.830Z,-24151.87
2023-04-11T09:13:24.739Z,-24154.17
2023-04-11T09:16:10.547Z,-24154.67
2023-04-11T09:18:40.450Z,-24155.26
2023-04-11T09:21:14.528Z,-24155.97
2023-04-11T09:23:42.988Z,-24157.16
2023-04-11T09:26:12.420Z,-24157.74
2023-04-11T09:28:44.981Z,-24159.24
2023-04-11T09:31:13.930Z,-24161.29
2023-04-11T09:34:08.768Z,-24163.33
2023-04-11T09:36:38.564Z,-24163.80
2023-04-11T09:39:19.567Z,-24164.27
2023-04-11T09:41:47.793Z,-24164.70
2023-04-11T09:44:16.049Z,-24165.54
2023-04-11T09:47:02.599Z,-24167.56
2023-04-11T09:49:31.808Z,-24170.85
2023-04-11T09:52:00.133Z,-24172.09
2023-04-11T09:54:28.889Z,-24173.71
2023-04-11T09:56:57.314Z,-24176.29
2023-04-11T09:59:26.511Z,-24179.51
2023-04-11T10:01:54.948Z,-24181.38
2023-04-11T10:04:23.269Z,-24182.19
2023-04-11T10:07:02.387Z,-24182.25
2023-04-11T10:09:31.404Z,-24182.53
2023-04-11T10:12:01.355Z,-24181.44
2023-04-11T10:14:39.571Z,-24180.10
2023-04-11T10:17:15.710Z,-24178.98
2023-04-11T10:19:45.346Z,-24178.58
2023-04-11T10:22:44.061Z,-24177.37
2023-04-11T10:25:19.694Z,-24177.00
2023-04-11T10:28:01.503Z,-24178.21
2023-04-11T10:30:40.254Z,-24179.17
2023-04-11T10:33:12.849Z,-24180.22
2023-04-11T10:36:00.092Z,-24181.28
2023-04-11T10:38:37.728Z,-24181.53
2023-04-11T10:41:18.787Z,-24182.15
2023-04-11T10:43:47.887Z,-24183.93
2023-04-11T10:46:25.830Z,-24185.82
2023-04-11T10:48:58.199Z,-24186.50
2023-04-11T10:51:32.654Z,-24187.12
2023-04-11T10:54:01.291Z,-24186.44
2023-04-11T10:56:52.749Z,-24184.82
2023-04-11T10:59:36.276Z,-24184.45
2023-04-11T11:02:04.606Z,-24184.30
2023-04-11T11:04:41.166Z,-24184.02
2023-04-11T11:07:13.490Z,-24184.02
2023-04-11T11:09:41.952Z,-24184.21
2023-04-11T11:12:12.981Z,-24185.32
2023-04-11T11:14:45.595Z,-24185.63
2023-04-11T11:17:14.527Z,-24186.47
2023-04-11T11:19:45.212Z,-24186.81
2023-04-11T11:22:16.716Z,-24187.99
2023-04-11T11:24:44.840Z,-24190.01
2023-04-11T11:27:23.106Z,-24191.84
2023-04-11T11:29:51.844Z,-24193.48
2023-04-11T11:32:26.512Z,-24194.72
2023-04-11T11:34:55.566Z,-24195.13
2023-04-11T11:37:24.111Z,-24194.94
2023-04-11T11:39:52.432Z,-24195.44
2023-04-11T11:42:21.444Z,-24196.12
2023-04-11T11:44:49.525Z,-24195.38
2023-04-11T11:47:17.866Z,-24193.45
2023-04-11T11:49:51.104Z,-24192.74
2023-04-11T11:52:36.097Z,-24193.02
2023-04-11T11:55:08.094Z,-24193.70
2023-04-11T11:57:45.708Z,-24194.91
2023-04-11T12:00:16.345Z,-24194.47
2023-04-11T12:02:57.414Z,-24193.48
2023-04-11T12:05:30.621Z,-24192.46
2023-04-11T12:08:00.585Z,-24192.46
2023-04-11T12:10:37.690Z,-24193.02
2023-04-11T12:13:20.977Z,-24193.76
2023-04-11T12:15:53.263Z,-24194.72
2023-04-11T12:18:26.740Z,-24195.84
2023-04-11T12:20:55.088Z,-24196.61
2023-04-11T12:23:23.789Z,-24196.49
2023-04-11T12:25:51.898Z,-24196.61
2023-04-11T12:28:20.702Z,-24197.45
2023-04-11T12:30:48.821Z,-24198.29
2023-04-11T12:33:17.243Z,-24199.22
2023-04-11T12:35:46.024Z,-24200.46
2023-04-11T12:38:17.486Z,-24200.86
2023-04-11T12:40:47.080Z,-24200.83
2023-04-11T12:43:15.775Z,-24199.50
2023-04-11T12:45:44.608Z,-24198.76
2023-04-11T12:48:13.471Z,-24198.79
2023-04-11T12:50:42.406Z,-24198.97
2023-04-11T12:53:10.586Z,-24198.97
2023-04-11T12:55:38.835Z,-24197.48
2023-04-11T12:58:09.603Z,-24197.24
2023-04-11T13:00:37.912Z,-24197.67
2023-04-11T13:03:16.316Z,-24198.07
2023-04-11T13:05:46.714Z,-24198.57
2023-04-11T13:08:15.685Z,-24199.16
2023-04-11T13:10:44.019Z,-24199.44
2023-04-11T13:15:46.718Z,-24200.49
2023-04-11T13:18:14.982Z,-24199.47
2023-04-11T13:20:46.181Z,-24198.47
2023-04-11T13:23:16.679Z,-24197.92
2023-04-11T13:25:48.741Z,-24197.67
2023-04-11T13:28:17.175Z,-24197.33
2023-04-11T13:30:46.522Z,-24197.18
2023-04-11T13:33:14.828Z,-24197.55
2023-04-11T13:35:43.357Z,-24197.67
2023-04-11T13:38:12.872Z,-24197.92
2023-04-11T13:40:42.832Z,-24198.32
2023-04-11T13:43:11.260Z,-24198.14
2023-04-11T13:45:39.700Z,-24198.01
2023-04-11T13:48:08.279Z,-24198.54
2023-04-11T13:50:37.935Z,-24199.44
2023-04-11T13:53:06.127Z,-24200.03
2023-04-11T13:55:34.318Z,-24199.69
2023-04-11T13:58:02.596Z,-24199.72
2023-04-11T14:00:36.362Z,-24199.47
2023-04-11T14:03:06.096Z,-24199.47
2023-04-11T14:05:35.828Z,-24199.84
2023-04-11T14:08:04.336Z,-24199.56
2023-04-11T14:10:35.778Z,-24198.29
2023-04-11T14:13:06.895Z,-24197.61
2023-04-11T14:15:35.194Z,-24196.92
2023-04-11T14:18:03.673Z,-24196.55
2023-04-11T14:20:37.160Z,-24196.89
2023-04-11T14:23:05.398Z,-24197.27
2023-04-11T14:25:33.724Z,-24196.24
2023-04-11T14:28:02.305Z,-24194.60
2023-04-11T14:30:30.959Z,-24193.67
2023-04-11T14:32:59.702Z,-24193.29
2023-04-11T14:35:29.050Z,-24193.64
2023-04-11T14:37:57.828Z,-24193.86
2023-04-11T14:40:26.061Z,-24193.67
2023-04-11T14:42:54.429Z,-24193.79
2023-04-11T14:45:24.374Z,-24193.57
2023-04-11T14:47:52.656Z,-24192.64
2023-04-11T14:50:20.972Z,-24191.03
2023-04-11T14:52:52.196Z,-24190.10
2023-04-11T14:55:22.031Z,-24189.73
2023-04-11T14:57:53.488Z,-24189.73
2023-04-11T15:00:24.692Z,-24190.10
2023-04-11T15:02:55.203Z,-24190.01
2023-04-11T15:05:23.871Z,-24189.73
2023-04-11T15:07:53.518Z,-24189.02
2023-04-11T15:10:23.325Z,-24188.42
2023-04-11T15:12:51.697Z,-24187.46
2023-04-11T15:15:19.867Z,-24186.44
2023-04-11T15:17:49.841Z,-24185.07
2023-04-11T15:20:20.193Z,-24183.83
2023-04-11T15:22:48.451Z,-24182.75
2023-04-11T15:25:17.085Z,-24181.90
2023-04-11T15:27:45.272Z,-24181.06
2023-04-11T15:30:13.801Z,-24180.04
2023-04-11T15:32:42.979Z,-24179.04
2023-04-11T15:35:11.292Z,-24178.09
2023-04-11T15:37:39.882Z,-24177.18
2023-04-11T15:40:12.445Z,-24176.32
2023-04-11T15:42:45.364Z,-24175.57
2023-04-11T15:45:14.056Z,-24174.86
2023-04-11T15:47:42.620Z,-24174.23
2023-04-11T15:50:12.196Z,-24173.61
2023-04-11T15:52:40.773Z,-24172.81
2023-04-11T15:55:10.132Z,-24172.18
2023-04-11T15:57:38.919Z,-24171.38
2023-04-11T16:00:10.806Z,-24170.91
2023-04-11T16:02:44.944Z,-24170.26
2023-04-11T16:05:13.647Z,-24169.89
2023-04-11T16:07:43.186Z,-24169.14
2023-04-11T16:10:11.590Z,-24168.21
2023-04-11T16:12:39.910Z,-24167.31
2023-04-11T16:15:08.645Z,-24166.22
2023-04-11T16:17:39.577Z,-24165.38
2023-04-11T16:20:12.081Z,-24164.77
2023-04-11T16:22:40.636Z,-24163.98
2023-04-11T16:25:09.108Z,-24162.90
2023-04-11T16:27:37.531Z,-24161.53
2023-04-11T16:30:06.684Z,-24160.29
2023-04-11T16:32:36.327Z,-24159.61
2023-04-11T16:35:05.492Z,-24159.36
2023-04-11T16:37:35.791Z,-24159.11
2023-04-11T16:40:08.344Z,-24158.71
2023-04-11T16:42:37.524Z,-24157.96
2023-04-11T16:45:07.315Z,-24157.43
2023-04-11T16:47:35.731Z,-24157.06
2023-04-11T16:50:05.922Z,-24156.25
2023-04-11T16:52:34.201Z,-24155.79
2023-04-11T16:55:05.817Z,-24155.57
2023-04-11T16:57:34.726Z,-24155.16
2023-04-11T17:00:10.969Z,-24154.73
2023-04-11T17:02:57.558Z,-24154.17
2023-04-11T17:05:25.891Z,-24153.46
2023-04-11T17:07:54.979Z,-24152.62
2023-04-11T17:10:23.178Z,-24151.31
2023-04-11T17:12:51.927Z,-24150.47
2023-04-11T17:15:22.062Z,-24150.04
2023-04-11T17:17:50.938Z,-24149.88
2023-04-11T17:20:21.960Z,-24149.54
2023-04-11T17:22:50.915Z,-24149.26
2023-04-11T17:25:19.577Z,-24148.86
2023-04-11T17:27:49.572Z,-24148.39
2023-04-11T17:30:18.264Z,-24147.61
2023-04-11T17:32:48.404Z,-24147.33
2023-04-11T17:35:16.675Z,-24147.15
2023-04-11T17:37:45.581Z,-24147.36
2023-04-11T17:40:14.516Z,-24147.46
2023-04-11T17:42:43.977Z,-24147.30
2023-04-11T17:47:44.281Z,-24146.71
2023-04-11T17:50:13.611Z,-24146.37
2023-04-11T17:52:43.798Z,-24146.12
2023-04-11T17:55:14.037Z,-24145.66
2023-04-11T17:57:42.812Z,-24144.84
2023-04-11T18:00:24.165Z,-24144.04
2023-04-11T18:03:00.832Z,-24143.04
2023-04-11T18:05:31.557Z,-24141.70
2023-04-11T18:08:03.853Z,-24140.37
2023-04-11T18:10:32.573Z,-24139.58
2023-04-11T18:13:00.916Z,-24138.84
2023-04-11T18:15:36.160Z,-24137.94
2023-04-11T18:18:08.157Z,-24136.79
2023-04-11T18:20:36.549Z,-24136.07
2023-04-11T18:23:04.929Z,-24135.92
2023-04-11T18:25:34.061Z,-24135.32
2023-04-11T18:28:02.524Z,-24134.43
2023-04-11T18:30:31.972Z,-24133.52
2023-04-11T18:33:03.474Z,-24132.75
2023-04-11T18:35:31.834Z,-24131.91
2023-04-11T18:38:00.408Z,-24131.10
2023-04-11T18:40:29.889Z,-24130.35
2023-04-11T18:43:00.252Z,-24129.76
2023-04-11T18:45:29.337Z,-24129.26
2023-04-11T18:47:57.893Z,-24128.82
2023-04-11T18:50:27.787Z,-24128.45
2023-04-11T18:52:58.955Z,-24128.27
2023-04-11T18:55:30.850Z,-24128.14
2023-04-11T18:58:00.702Z,-24127.89
2023-04-11T19:00:32.502Z,-24127.68
2023-04-11T19:03:01.836Z,-24127.49
2023-04-11T19:05:30.937Z,-24127.09
2023-04-11T19:08:00.394Z,-24126.50
2023-04-11T19:10:30.223Z,-24126.21
2023-04-11T19:12:58.490Z,-24125.88
2023-04-11T19:15:29.657Z,-24125.59
2023-04-11T19:18:00.065Z,-24125.15
2023-04-11T19:20:29.717Z,-24124.84
2023-04-11T19:23:04.637Z,-24124.63
2023-04-11T19:25:32.991Z,-24124.41
2023-04-11T19:28:01.201Z,-24124.07
2023-04-11T19:30:29.763Z,-24123.60
2023-04-11T19:32:59.438Z,-24123.26
2023-04-11T19:35:28.166Z,-24122.95
2023-04-11T19:37:59.137Z,-24122.76
2023-04-11T19:40:28.856Z,-24122.79
2023-04-11T19:42:57.252Z,-24122.64
2023-04-11T19:45:25.636Z,-24122.29
2023-04-11T19:47:54.475Z,-24122.14
2023-04-11T19:50:23.041Z,-24121.98
2023-04-11T19:52:56.293Z,-24121.89
2023-04-11T19:55:24.843Z,-24121.77
2023-04-11T19:57:53.181Z,-24121.67
2023-04-11T20:00:21.721Z,-24121.05
2023-04-11T20:03:14.710Z,-24120.80
2023-04-11T20:05:44.374Z,-24120.61
2023-04-11T20:08:12.783Z,-24120.43
2023-04-11T20:10:41.544Z,-24120.43
2023-04-11T20:13:09.782Z,-24120.39
2023-04-11T20:15:38.324Z,-24120.27
2023-04-11T20:18:06.604Z,-24120.21
2023-04-11T20:20:36.969Z,-24119.93
2023-04-11T20:23:15.933Z,-24119.59
2023-04-11T20:25:44.823Z,-24119.25
2023-04-11T20:28:13.026Z,-24118.84
2023-04-11T20:30:41.992Z,-24118.46
2023-04-11T20:33:10.493Z,-24117.63
2023-04-11T20:35:39.122Z,-24116.20
2023-04-11T20:38:08.078Z,-24115.07
2023-04-11T20:40:37.272Z,-24114.48
2023-04-11T20:43:06.716Z,-24113.39
2023-04-11T20:45:36.381Z,-24112.31
2023-04-11T20:48:06.513Z,-24111.53
2023-04-11T20:50:35.798Z,-24111.28
2023-04-11T20:53:04.309Z,-24110.75
2023-04-11T20:55:33.526Z,-24109.44
2023-04-11T20:58:01.684Z,-24108.42
2023-04-11T21:00:30.341Z,-24107.67
2023-04-11T21:02:59.543Z,-24106.64
2023-04-11T21:05:27.951Z,-24105.89
2023-04-11T21:08:00.368Z,-24104.90
2023-04-11T21:10:28.797Z,-24103.71
2023-04-11T21:12:57.005Z,-24102.31
2023-04-11T21:15:26.833Z,-24100.53
2023-04-11T21:17:55.147Z,-24099.10
2023-04-11T21:20:23.820Z,-24097.54
2023-04-11T21:22:55.972Z,-24096.17
2023-04-11T21:25:25.391Z,-24094.43
2023-04-11T21:27:53.639Z,-24092.46
2023-04-11T21:30:21.955Z,-24090.07
2023-04-11T21:33:05.071Z,-24088.35
2023-04-11T21:35:34.666Z,-24087.79
2023-04-11T21:38:02.862Z,-24088.45
2023-04-11T21:40:31.684Z,-24087.67
2023-04-11T21:43:00.072Z,-24086.29
2023-04-11T21:45:30.507Z,-24084.96
2023-04-11T21:47:59.800Z,-24083.59
2023-04-11T21:50:28.001Z,-24082.53
2023-04-11T21:53:04.890Z,-24081.65
2023-04-11T21:55:33.397Z,-24080.50
2023-04-11T21:58:01.529Z,-24079.69
2023-04-11T22:00:30.187Z,-24078.79
2023-04-11T22:02:58.580Z,-24078.25
2023-04-11T22:05:27.645Z,-24077.61
2023-04-11T22:08:22.906Z,-24076.89
2023-04-11T22:10:52.586Z,-24076.32
2023-04-11T22:13:20.854Z,-24075.89
2023-04-11T22:15:58.423Z,-24075.45
2023-04-11T22:18:27.229Z,-24074.61
2023-04-11T22:21:03.277Z,-24073.90
2023-04-11T22:23:31.880Z,-24073.30
2023-04-11T22:26:00.260Z,-24072.80
2023-04-11T22:28:30.825Z,-24072.18
2023-04-11T22:30:58.923Z,-24071.55
2023-04-11T22:33:27.133Z,-24071.21
2023-04-11T22:35:58.605Z,-24070.31
2023-04-11T22:38:27.743Z,-24069.31
2023-04-11T22:40:55.954Z,-24068.69
2023-04-11T22:43:24.328Z,-24067.81
2023-04-11T22:45:53.276Z,-24066.35
2023-04-11T22:48:21.460Z,-24064.82
2023-04-11T22:50:53.135Z,-24063.01
2023-04-11T22:53:26.253Z,-24061.08
2023-04-11T22:55:54.444Z,-24059.49
2023-04-11T22:58:22.689Z,-24058.37
2023-04-11T23:00:52.054Z,-24058.08
2023-04-11T23:03:21.444Z,-24057.65
2023-04-11T23:05:51.332Z,-24056.71
2023-04-11T23:08:19.594Z,-24055.87
2023-04-11T23:10:47.755Z,-24054.75
2023-04-11T23:13:16.343Z,-24053.78
2023-04-11T23:15:47.378Z,-24052.97
2023-04-11T23:18:15.550Z,-24051.97
2023-04-11T23:20:49.540Z,-24050.28
2023-04-11T23:23:19.927Z,-24048.41
2023-04-11T23:25:48.123Z,-24046.47
2023-04-11T23:28:16.704Z,-24044.38
2023-04-11T23:30:46.662Z,-24042.79
2023-04-11T23:33:16.082Z,-24041.70
2023-04-11T23:35:44.161Z,-24040.05
2023-04-11T23:38:13.397Z,-24038.73
2023-04-11T23:40:42.428Z,-24037.80
2023-04-11T23:43:12.775Z,-24036.24
2023-04-11T23:45:41.285Z,-24033.36
2023-04-11T23:48:11.088Z,-24031.24
2023-04-11T23:50:40.117Z,-24029.62
2023-04-11T23:53:08.420Z,-24027.78
2023-04-11T23:55:36.781Z,-24025.96
2023-04-11T23:58:05.012Z,-24024.50
